Holley, New York
Current Conditions -  °F | °C
As of 11:54 AM on Monday 22 Dec 2014 (Local Time) from KROC Reporting Station
Scattered Clouds Scattered Clouds  
Wind Chill: 27°   Ceiling: Unl
Heat Index: 34°   Visibility: 10mi
Dew Point: 23°   Wind: 9mph
Humidity: 64%   Direction: 150°SSE
Pressure: 30.17"   Gusts: NA
Location:  43.23°N, 78.03°W
Report Text: KROC 221654Z 15008KT 10SM FEW140 FEW180 SCT250 01/M05 A3017 RMK AO2 PRESFR SLP225 T00111050
Loading
Personal Weather Stations






























Interactive Weather Map New forecast layout! Learn more

10-Day Weather Forecast

Advertisements
Track Severe Weather on mobile